Terminal Aerodrome Forecast
Issued by NWS Louisville, KY

Home | Current Version | Previous Version | Text Only | Print | Product List | Glossary On
Versions: 1 2 3 4 5 6 7 8 9 10 11 12 13 14 15
000
FTUS43 KLMK 192200 AAA
TAFLEX
TAF AMD
KLEX 192213Z 1922/2018 17012G22KT P6SM -SHRA VCTS SCT025 BKN050CB
      TEMPO 1922/2001 VRB15G30KT 1SM TSRA BKN010CB
     FM200300 20010KT P6SM BKN025
     FM201400 24016G24KT P6SM VCSH BKN015=

USA.gov is the U.S. government's official web portal to all federal, state and local government web resources and services.